Time;durP1;ratioP1;P1;durP2;ratioP2;P2;SDS_P1;SDS_P2;PMS_P1;PMS_P2;Temp;Humidity;BMP_temperature;BMP_pressure;BME280_temperature;BME280_humidity;BME280_pressure;Samples;Min_cycle;Max_cycle;Signal;HPM_P1;HPM_P2
2023/01/02 00:01:34;;;;;;;40.90;24.60;;;;;;;1.49;100.00;98567.55;108034;1265;68261;-63
2023/01/02 00:04:04;;;;;;;36.60;18.70;;;;;;;1.53;100.00;98564.20;107983;1263;68260;-63
2023/01/02 00:06:37;;;;;;;33.60;22.30;;;;;;;1.64;100.00;98567.27;107972;1263;59709;-63
2023/01/02 00:09:07;;;;;;;73.90;30.60;;;;;;;1.72;100.00;98569.53;107631;1262;566625;-63
2023/01/02 00:11:36;;;;;;;35.40;22.90;;;;;;;1.73;100.00;98566.43;108030;1263;71343;-64
2023/01/02 00:14:05;;;;;;;30.20;20.30;;;;;;;1.73;100.00;98566.77;108031;1263;69018;-63
2023/01/02 00:16:35;;;;;;;25.30;16.60;;;;;;;1.74;100.00;98566.23;107960;1263;68812;-64
2023/01/02 00:19:05;;;;;;;34.40;22.30;;;;;;;1.75;100.00;98562.60;108018;1260;59758;-64
2023/01/02 00:21:34;;;;;;;39.60;24.60;;;;;;;1.75;100.00;98563.10;107981;1265;59652;-64
2023/01/02 00:24:04;;;;;;;41.70;23.30;;;;;;;1.74;100.00;98560.02;108021;1263;71417;-64
2023/01/02 00:26:33;;;;;;;29.60;18.90;;;;;;;1.71;100.00;98557.67;108034;1263;69657;-64
2023/01/02 00:29:02;;;;;;;41.20;25.90;;;;;;;1.70;100.00;98560.96;108014;1264;69274;-63
2023/01/02 00:31:32;;;;;;;67.90;29.50;;;;;;;1.65;100.00;98564.50;107957;1262;60089;-64
2023/01/02 00:34:01;;;;;;;40.80;21.20;;;;;;;1.59;100.00;98569.95;108000;1262;59686;-63
2023/01/02 00:36:31;;;;;;;27.60;16.80;;;;;;;1.56;100.00;98566.58;107990;1266;70573;-64
2023/01/02 00:38:59;;;;;;;29.70;18.70;;;;;;;1.56;100.00;98570.84;107985;1265;69687;-64
2023/01/02 00:41:29;;;;;;;38.20;19.90;;;;;;;1.56;100.00;98571.55;107949;1264;69725;-64
2023/01/02 00:43:58;;;;;;;30.00;18.10;;;;;;;1.51;100.00;98569.21;108001;1265;59626;-64
2023/01/02 00:46:27;;;;;;;23.90;16.70;;;;;;;1.48;100.00;98569.28;107997;1266;59702;-64
2023/01/02 00:48:56;;;;;;;26.00;16.60;;;;;;;1.47;100.00;98567.05;108041;1262;71935;-64
2023/01/02 00:51:25;;;;;;;36.60;19.60;;;;;;;1.48;100.00;98574.77;108010;1266;68241;-64
2023/01/02 00:53:54;;;;;;;55.00;26.20;;;;;;;1.47;100.00;98568.61;107992;1262;69264;-64
2023/01/02 00:56:24;;;;;;;36.70;20.30;;;;;;;1.36;100.00;98567.09;107982;1265;59772;-63
2023/01/02 00:58:54;;;;;;;59.90;34.40;;;;;;;1.19;100.00;98565.15;107975;1262;59757;-63
2023/01/02 01:01:23;;;;;;;44.90;28.80;;;;;;;1.04;100.00;98570.55;107979;1263;72024;-64
2023/01/02 01:03:52;;;;;;;31.80;18.20;;;;;;;0.98;100.00;98563.95;107974;1262;69831;-63
2023/01/02 01:06:21;;;;;;;34.80;23.20;;;;;;;0.95;100.00;98568.29;108026;1263;69230;-64
2023/01/02 01:08:50;;;;;;;33.80;24.00;;;;;;;0.93;100.00;98566.61;107983;1266;59706;-64
2023/01/02 01:11:20;;;;;;;31.30;21.50;;;;;;;0.88;100.00;98563.24;108000;1262;59674;-63
2023/01/02 01:13:51;;;;;;;36.10;23.70;;;;;;;0.86;100.00;98559.84;108005;1262;70563;-63
2023/01/02 01:16:20;;;;;;;33.50;20.50;;;;;;;0.86;100.00;98561.04;108004;1266;69963;-63
2023/01/02 01:18:55;;;;;;;36.10;23.00;;;;;;;0.85;100.00;98563.64;108008;1265;69058;-63
2023/01/02 01:21:24;;;;;;;30.60;19.00;;;;;;;0.82;100.00;98563.16;107777;1267;59781;-63
2023/01/02 01:23:55;;;;;;;25.30;17.30;;;;;;;0.81;100.00;98563.52;108021;1262;60108;-64
2023/01/02 01:26:24;;;;;;;28.30;16.90;;;;;;;0.83;100.00;98557.65;108010;1263;70619;-64
2023/01/02 01:28:55;;;;;;;25.00;17.80;;;;;;;0.85;100.00;98557.12;108005;1262;68634;-64
2023/01/02 01:31:25;;;;;;;26.50;18.30;;;;;;;0.86;100.00;98552.47;108037;1265;70272;-64
2023/01/02 01:33:54;;;;;;;;;;;;;;;0.85;100.00;98549.40;108026;1265;59760;-64
2023/01/02 01:36:25;;;;;;;17.10;12.50;;;;;;;0.85;100.00;98548.20;108010;1262;59726;-63
2023/01/02 01:38:55;;;;;;;21.10;13.20;;;;;;;0.85;100.00;98546.47;108008;1263;71499;-63
2023/01/02 01:41:25;;;;;;;22.80;14.80;;;;;;;0.84;100.00;98549.24;108031;1261;68748;-64
2023/01/02 01:43:57;;;;;;;19.50;14.20;;;;;;;0.82;100.00;98552.02;108043;1263;68434;-64
2023/01/02 01:46:29;;;;;;;22.20;15.00;;;;;;;0.79;100.00;98552.24;107962;1266;59752;-63
2023/01/02 01:49:21;;;;;;;27.90;20.50;;;;;;;0.75;100.00;98551.95;107995;1264;59719;-64
2023/01/02 01:51:55;;;;;;;27.90;19.30;;;;;;;0.69;100.00;98554.28;108024;1266;70457;-64
2023/01/02 01:54:37;;;;;;;30.50;19.80;;;;;;;0.63;100.00;98556.41;108016;1262;68265;-63
2023/01/02 01:57:30;;;;;;;28.70;19.20;;;;;;;0.58;100.00;98556.34;108025;1263;68401;-63
2023/01/02 02:00:01;;;;;;;35.70;24.50;;;;;;;0.49;100.00;98552.51;107981;1266;59711;-63
2023/01/02 02:02:35;;;;;;;42.60;28.00;;;;;;;0.41;100.00;98546.95;108033;1264;59713;-63
2023/01/02 02:05:06;;;;;;;34.60;22.40;;;;;;;0.34;100.00;98545.16;107952;1265;72072;-63
2023/01/02 02:07:41;;;;;;;34.70;22.00;;;;;;;0.30;100.00;98548.48;107981;1262;69789;-63
2023/01/02 02:10:12;;;;;;;27.60;18.40;;;;;;;0.23;100.00;98547.73;108028;1266;69893;-63
2023/01/02 02:12:41;;;;;;;23.60;16.70;;;;;;;0.19;100.00;98548.45;107974;1263;59702;-63
2023/01/02 02:15:17;;;;;;;31.70;18.50;;;;;;;0.18;100.00;98545.39;108031;1263;59695;-63
2023/01/02 02:17:52;;;;;;;40.30;18.10;;;;;;;0.17;100.00;98550.19;108038;1262;72489;-63
2023/01/02 02:20:28;;;;;;;37.70;17.10;;;;;;;0.17;100.00;98552.59;108016;1265;69680;-63
2023/01/02 02:23:13;;;;;;;21.20;14.10;;;;;;;0.19;100.00;98551.38;107991;1262;68473;-64
2023/01/02 02:26:14;;;;;;;32.20;16.50;;;;;;;0.24;100.00;98557.14;107995;1257;59683;-64
2023/01/02 02:28:47;;;;;;;;;;;;;;;0.30;100.00;98558.08;108053;1263;59658;-64
2023/01/02 02:31:31;;;;;;;18.70;13.00;;;;;;;0.34;100.00;98563.86;108034;1262;72003;-64
2023/01/02 02:34:39;;;;;;;27.60;17.20;;;;;;;0.34;100.00;98569.35;108001;1266;69347;-65
2023/01/02 02:37:31;;;;;;;31.90;20.90;;;;;;;0.27;100.00;98568.92;107974;1260;68178;-64
2023/01/02 02:40:34;;;;;;;27.60;19.00;;;;;;;0.17;100.00;98565.80;108005;1263;59682;-64
2023/01/02 02:43:30;;;;;;;24.20;17.70;;;;;;;0.07;100.00;98556.84;108006;1265;59735;-63
2023/01/02 02:46:08;;;;;;;24.60;15.90;;;;;;;-0.01;100.00;98554.20;107994;1263;71456;-63
2023/01/02 02:49:10;;;;;;;24.80;15.40;;;;;;;-0.05;100.00;98553.05;107969;1265;69322;-63
2023/01/02 02:51:54;;;;;;;24.00;13.30;;;;;;;-0.08;100.00;98548.98;108021;1262;69999;-63
2023/01/02 02:54:56;;;;;;;19.00;13.40;;;;;;;-0.09;100.00;98546.42;107976;1265;59772;-64
2023/01/02 02:57:29;;;;;;;33.20;16.60;;;;;;;-0.12;100.00;98544.22;108067;1263;59777;-63
2023/01/02 02:59:58;;;;;;;40.60;20.90;;;;;;;-0.13;100.00;98545.96;108010;1266;70021;-63
2023/01/02 03:02:28;;;;;;;27.60;18.10;;;;;;;-0.15;100.00;98541.34;108010;1265;69837;-63
2023/01/02 03:05:04;;;;;;;23.50;16.60;;;;;;;-0.17;100.00;98541.73;108004;1265;68507;-63
2023/01/02 03:08:00;;;;;;;21.40;15.20;;;;;;;-0.17;100.00;98539.50;107982;1265;59727;-63
2023/01/02 03:10:31;;;;;;;25.80;16.10;;;;;;;-0.22;100.00;98540.39;107984;1262;59703;-63
2023/01/02 03:13:19;;;;;;;24.00;16.00;;;;;;;-0.26;100.00;98539.94;108020;1266;71378;-63
2023/01/02 03:16:16;;;;;;;21.40;15.20;;;;;;;-0.29;100.00;98539.79;108023;1264;70250;-63
2023/01/02 03:18:56;;;;;;;23.10;14.90;;;;;;;-0.28;100.00;98539.61;108011;1265;68250;-64
2023/01/02 03:21:34;;;;;;;24.30;15.30;;;;;;;-0.27;100.00;98539.95;107996;1266;59807;-64
2023/01/02 03:24:10;;;;;;;62.60;23.20;;;;;;;-0.26;100.00;98537.70;108041;1266;60083;-64
2023/01/02 03:26:44;;;;;;;39.20;23.70;;;;;;;-0.28;100.00;98535.16;108055;1264;72022;-64
2023/01/02 03:29:25;;;;;;;22.00;15.40;;;;;;;-0.29;100.00;98529.50;107967;1265;70116;-64
2023/01/02 03:32:00;;;;;;;16.90;11.60;;;;;;;-0.29;100.00;98528.64;108008;1262;68493;-64
2023/01/02 03:34:34;;;;;;;23.30;15.10;;;;;;;-0.29;100.00;98526.59;107696;1266;59767;-64
2023/01/02 03:37:10;;;;;;;18.70;12.30;;;;;;;-0.30;100.00;98524.39;107932;1262;59756;-64
2023/01/02 03:39:50;;;;;;;31.60;17.40;;;;;;;-0.29;100.00;98526.08;107991;1266;71355;-64
2023/01/02 03:42:40;;;;;;;31.10;17.40;;;;;;;-0.28;100.00;98526.59;107971;1263;69796;-64
2023/01/02 03:45:26;;;;;;;18.30;11.70;;;;;;;-0.28;100.00;98526.59;107955;1266;67706;-64
2023/01/02 03:48:16;;;;;;;24.40;12.70;;;;;;;-0.27;100.00;98529.16;107944;1262;60227;-64
2023/01/02 03:50:52;;;;;;;29.40;13.60;;;;;;;-0.24;100.00;98529.98;108004;1265;59694;-64
2023/01/02 03:53:22;;;;;;;21.40;11.20;;;;;;;-0.19;100.00;98526.48;107957;1260;70593;-64
2023/01/02 03:56:14;;;;;;;14.20;10.50;;;;;;;-0.16;100.00;98527.64;107977;1264;69059;-64
2023/01/02 03:58:55;;;;;;;15.30;9.90;;;;;;;-0.14;100.00;98527.29;107957;1266;68469;-64
2023/01/02 04:01:50;;;;;;;25.50;16.00;;;;;;;-0.15;100.00;98525.06;107925;1260;59703;-64
2023/01/02 04:04:44;;;;;;;15.90;10.80;;;;;;;-0.20;100.00;98527.70;108009;1266;59745;-64
2023/01/02 04:07:44;;;;;;;25.60;14.80;;;;;;;-0.22;100.00;98535.27;107985;1262;70857;-64
2023/01/02 04:10:16;;;;;;;19.40;13.00;;;;;;;-0.26;100.00;98532.91;108026;1262;67364;-64
2023/01/02 04:12:53;;;;;;;18.00;11.40;;;;;;;-0.29;100.00;98537.73;108003;1262;69241;-64
2023/01/02 04:15:31;;;;;;;17.50;11.70;;;;;;;-0.31;100.00;98537.60;107974;1265;60059;-64
2023/01/02 04:18:09;;;;;;;20.40;12.30;;;;;;;-0.32;100.00;98538.30;107976;1265;59730;-64
2023/01/02 04:20:46;;;;;;;14.50;10.70;;;;;;;-0.33;100.00;98534.53;107991;1262;70769;-64
2023/01/02 04:23:28;;;;;;;21.70;13.20;;;;;;;-0.34;100.00;98533.68;107981;1256;69317;-64
2023/01/02 04:26:20;;;;;;;15.60;12.00;;;;;;;-0.34;100.00;98533.00;107937;1265;68504;-64
2023/01/02 04:28:52;;;;;;;19.80;12.80;;;;;;;-0.36;100.00;98533.37;108052;1260;59761;-63
2023/01/02 04:31:34;;;;;;;15.30;10.90;;;;;;;-0.36;100.00;98536.96;108036;1264;59714;-63
2023/01/02 04:34:08;;;;;;;20.20;11.50;;;;;;;-0.35;100.00;98538.33;108002;1262;70455;-63
2023/01/02 04:36:39;;;;;;;17.40;11.20;;;;;;;-0.34;100.00;98538.30;107998;1265;68389;-63
2023/01/02 04:39:09;;;;;;;17.80;11.40;;;;;;;-0.31;100.00;98536.73;107736;1266;69230;-63
2023/01/02 04:41:39;;;;;;;14.90;11.40;;;;;;;-0.26;100.00;98536.17;108039;1266;60162;-62
2023/01/02 04:44:09;;;;;;;16.80;11.80;;;;;;;-0.27;100.00;98537.89;107978;1263;59665;-63
2023/01/02 04:46:39;;;;;;;18.30;11.70;;;;;;;-0.28;100.00;98538.76;108002;1260;71484;-63
2023/01/02 04:49:09;;;;;;;28.50;15.00;;;;;;;-0.30;100.00;98538.42;107950;1266;69677;-63
2023/01/02 04:51:38;;;;;;;38.50;17.70;;;;;;;-0.35;100.00;98536.60;107979;1263;68294;-63
2023/01/02 04:54:10;;;;;;;26.50;16.80;;;;;;;-0.43;100.00;98534.82;107983;1264;59707;-63
2023/01/02 04:56:40;;;;;;;39.30;18.60;;;;;;;-0.51;100.00;98533.53;107966;1260;59641;-63
2023/01/02 04:59:09;;;;;;;22.10;14.40;;;;;;;-0.59;100.00;98533.95;107993;1265;70692;-63
2023/01/02 05:01:39;;;;;;;30.00;19.40;;;;;;;-0.65;100.00;98534.70;107920;1265;69829;-63
2023/01/02 05:04:08;;;;;;;24.20;17.50;;;;;;;-0.69;100.00;98534.05;107999;1264;69864;-63
2023/01/02 05:06:37;;;;;;;27.70;16.00;;;;;;;-0.71;100.00;98537.83;107986;1262;59772;-63
2023/01/02 05:09:06;;;;;;;21.30;14.50;;;;;;;-0.73;100.00;98536.83;108011;1266;59651;-63
2023/01/02 05:11:36;;;;;;;28.40;16.40;;;;;;;-0.75;100.00;98541.30;108023;1262;71568;-63
2023/01/02 05:14:07;;;;;;;21.20;15.30;;;;;;;-0.76;100.00;98539.95;108024;1256;69249;-63
2023/01/02 05:16:37;;;;;;;20.80;14.40;;;;;;;-0.76;100.00;98539.43;107994;1265;68300;-63
2023/01/02 05:19:06;;;;;;;28.90;16.40;;;;;;;-0.75;100.00;98541.45;108015;1261;59748;-63
2023/01/02 05:24:26;;;;;;;27.70;14.60;;;;;;;-0.68;100.00;98535.59;108074;1266;70593;-63
2023/01/02 05:26:56;;;;;;;48.80;21.10;;;;;;;-0.67;100.00;98536.08;108042;1265;69241;-63
2023/01/02 05:29:26;;;;;;;27.10;16.80;;;;;;;-0.67;100.00;98544.66;108049;1263;69847;-63
2023/01/02 05:31:55;;;;;;;23.20;14.60;;;;;;;-0.68;100.00;98541.77;107984;1265;59712;-63
2023/01/02 05:34:24;;;;;;;27.90;16.00;;;;;;;-0.69;100.00;98541.92;108082;1262;59759;-63
2023/01/02 05:36:54;;;;;;;31.70;16.20;;;;;;;-0.69;100.00;98539.02;108034;1262;71407;-63
2023/01/02 05:39:24;;;;;;;30.20;15.50;;;;;;;-0.71;100.00;98542.80;108025;1263;68386;-63
2023/01/02 05:41:54;;;;;;;35.60;15.90;;;;;;;-0.72;100.00;98546.41;107996;1266;67881;-63
2023/01/02 05:44:24;;;;;;;23.10;12.70;;;;;;;-0.73;100.00;98547.27;108033;1264;59695;-63
2023/01/02 05:46:54;;;;;;;19.00;12.00;;;;;;;-0.74;100.00;98548.30;107954;1265;59713;-63
2023/01/02 05:49:23;;;;;;;19.50;12.00;;;;;;;-0.74;100.00;98545.23;108039;1263;72015;-63
2023/01/02 05:51:52;;;;;;;16.60;11.80;;;;;;;-0.73;100.00;98547.79;108011;1262;68375;-63
2023/01/02 05:54:21;;;;;;;16.10;10.10;;;;;;;-0.69;100.00;98554.95;108050;1262;69582;-63
2023/01/02 05:56:50;;;;;;;27.80;14.30;;;;;;;-0.65;100.00;98551.83;107741;1263;59706;-63
2023/01/02 05:59:19;;;;;;;26.00;15.40;;;;;;;-0.63;100.00;98553.86;108017;1266;59681;-64
2023/01/02 06:01:49;;;;;;;45.20;26.50;;;;;;;-0.62;100.00;98552.65;108014;1263;71314;-64
2023/01/02 06:04:18;;;;;;;51.50;29.90;;;;;;;-0.67;100.00;98551.83;108008;1266;68854;-63
2023/01/02 06:06:48;;;;;;;43.40;27.60;;;;;;;-0.70;100.00;98552.38;108041;1266;69157;-63
2023/01/02 06:09:17;;;;;;;33.50;22.50;;;;;;;-0.70;100.00;98551.35;108025;1263;59715;-63
2023/01/02 06:11:46;;;;;;;52.10;30.30;;;;;;;-0.72;100.00;98552.05;108055;1263;59762;-63
2023/01/02 06:14:15;;;;;;;47.60;30.10;;;;;;;-0.72;100.00;98558.06;107980;1267;70556;-64
2023/01/02 06:16:44;;;;;;;39.50;24.40;;;;;;;-0.74;100.00;98558.07;107987;1265;68442;-63
2023/01/02 06:19:14;;;;;;;34.80;23.50;;;;;;;-0.75;100.00;98554.83;107999;1264;69298;-63
2023/01/02 06:21:43;;;;;;;32.00;21.10;;;;;;;-0.74;100.00;98557.71;107990;1260;59679;-64
2023/01/02 06:24:12;;;;;;;29.10;19.30;;;;;;;-0.73;100.00;98559.61;108013;1266;59761;-65
2023/01/02 06:26:41;;;;;;;24.10;14.70;;;;;;;-0.72;100.00;98556.69;108007;1260;71677;-63
2023/01/02 06:29:12;;;;;;;23.90;14.50;;;;;;;-0.71;100.00;98558.55;107971;1262;69821;-63
2023/01/02 06:31:41;;;;;;;31.30;15.30;;;;;;;-0.70;100.00;98554.95;107956;1260;69911;-63
2023/01/02 06:34:19;;;;;;;19.70;13.60;;;;;;;-0.71;100.00;98554.80;107992;1267;59729;-65
2023/01/02 06:36:48;;;;;;;30.10;19.30;;;;;;;-0.73;100.00;98550.71;107974;1265;59694;-64
2023/01/02 06:39:17;;;;;;;24.50;15.40;;;;;;;-0.74;100.00;98548.48;107985;1265;70601;-64
2023/01/02 06:41:45;;;;;;;32.20;16.10;;;;;;;-0.71;100.00;98554.29;108017;1261;70048;-63
2023/01/02 06:44:16;;;;;;;22.10;16.10;;;;;;;-0.72;100.00;98560.95;108014;1262;68536;-64
2023/01/02 06:46:45;;;;;;;30.10;19.50;;;;;;;-0.72;100.00;98563.88;107899;1266;59722;-64
2023/01/02 06:49:13;;;;;;;38.00;23.30;;;;;;;-0.69;100.00;98563.00;107906;1265;59700;-64
2023/01/02 06:51:42;;;;;;;41.50;25.40;;;;;;;-0.63;100.00;98562.41;107951;1263;71024;-64
2023/01/02 06:54:11;;;;;;;42.00;23.30;;;;;;;-0.52;100.00;98560.92;107923;1263;69852;-64
2023/01/02 06:56:40;;;;;;;33.10;19.70;;;;;;;-0.38;100.00;98559.25;107952;1262;68176;-64
2023/01/02 06:59:09;;;;;;;69.00;25.30;;;;;;;-0.26;100.00;98557.07;107982;1266;59684;-64
2023/01/02 07:01:38;;;;;;;34.90;22.90;;;;;;;-0.19;100.00;98556.48;107921;1268;59783;-64
2023/01/02 07:04:14;;;;;;;40.30;26.10;;;;;;;-0.11;100.00;98552.78;108008;1266;72011;-63
2023/01/02 07:06:43;;;;;;;37.30;24.00;;;;;;;0.00;100.00;98550.58;108025;1266;70253;-64
2023/01/02 07:09:13;;;;;;;41.10;24.40;;;;;;;0.14;100.00;98552.80;108026;1265;69209;-63
2023/01/02 07:11:42;;;;;;;45.30;26.90;;;;;;;0.26;100.00;98558.65;108062;1263;59718;-64
2023/01/02 07:14:11;;;;;;;35.80;23.20;;;;;;;0.38;100.00;98560.20;108036;1266;59764;-63
2023/01/02 07:16:39;;;;;;;39.10;24.80;;;;;;;0.43;100.00;98558.60;107807;1267;71221;-64
2023/01/02 07:19:08;;;;;;;30.70;20.00;;;;;;;0.51;100.00;98558.83;107976;1263;69670;-64
2023/01/02 07:21:37;;;;;;;32.00;19.40;;;;;;;0.61;100.00;98557.84;108064;1265;68872;-65
2023/01/02 07:24:10;;;;;;;50.80;33.20;;;;;;;0.75;100.00;98558.81;108016;1265;59697;-65
2023/01/02 07:26:41;;;;;;;66.80;39.00;;;;;;;0.86;100.00;98562.42;108020;1266;59751;-63
2023/01/02 07:29:10;;;;;;;62.60;39.90;;;;;;;0.95;100.00;98570.34;108032;1262;71743;-64
2023/01/02 07:31:39;;;;;;;66.20;43.70;;;;;;;1.05;100.00;98575.68;108008;1262;69027;-64
2023/01/02 07:34:07;;;;;;;66.20;43.40;;;;;;;1.16;100.00;98576.02;108009;1260;69830;-63
2023/01/02 07:36:36;;;;;;;66.70;41.20;;;;;;;1.25;100.00;98579.14;107982;1260;59784;-63
2023/01/02 07:39:06;;;;;;;62.30;37.50;;;;;;;1.32;100.00;98580.55;108061;1265;59715;-64
2023/01/02 07:41:35;;;;;;;53.90;34.60;;;;;;;1.37;100.00;98579.79;107856;1267;71388;-64
2023/01/02 07:44:13;;;;;;;53.90;34.10;;;;;;;1.52;100.00;98574.71;108006;1266;69799;-64
2023/01/02 07:46:42;;;;;;;53.40;36.30;;;;;;;1.73;100.00;98570.02;108015;1263;69247;-64
2023/01/02 07:49:11;;;;;;;48.60;33.20;;;;;;;1.94;99.86;98568.92;108044;1266;59714;-63
2023/01/02 07:51:40;;;;;;;51.40;36.10;;;;;;;2.21;98.78;98567.19;107993;1264;59707;-64
2023/01/02 07:54:09;;;;;;;46.70;34.00;;;;;;;2.47;97.83;98567.65;108013;1266;71024;-64
2023/01/02 07:56:38;;;;;;;50.10;34.20;;;;;;;2.63;96.14;98566.10;108029;1263;69708;-63
2023/01/02 07:59:07;;;;;;;49.00;33.00;;;;;;;2.82;95.13;98569.27;108034;1262;69502;-63
2023/01/02 08:01:36;;;;;;;51.30;33.10;;;;;;;2.97;94.67;98572.52;108025;1266;59754;-63
2023/01/02 08:04:05;;;;;;;51.30;33.50;;;;;;;3.20;94.58;98570.60;107992;1267;59674;-63
2023/01/02 08:06:37;;;;;;;44.70;32.60;;;;;;;3.56;93.59;98570.02;108038;1266;72420;-65
2023/01/02 08:09:07;;;;;;;50.90;35.70;;;;;;;4.01;91.75;98567.96;108071;1266;68390;-63
2023/01/02 08:11:36;;;;;;;49.20;34.60;;;;;;;4.49;91.81;98569.31;108027;1262;68943;-65
2023/01/02 08:14:05;;;;;;;40.30;29.60;;;;;;;4.78;88.15;98569.29;107995;1265;59760;-66
2023/01/02 08:16:34;;;;;;;47.10;32.90;;;;;;;4.96;85.70;98569.24;108025;1263;59658;-65
2023/01/02 08:19:03;;;;;;;57.30;36.10;;;;;;;5.23;84.69;98568.20;108088;1264;71996;-63
2023/01/02 08:21:31;;;;;;;49.60;35.50;;;;;;;5.49;82.67;98568.73;108173;1260;69028;-64
2023/01/02 08:24:00;;;;;;;65.30;47.20;;;;;;;5.54;81.65;98567.70;108014;1264;69775;-66
2023/01/02 08:26:29;;;;;;;52.00;38.20;;;;;;;5.95;80.50;98569.40;108000;1267;59648;-65
2023/01/02 08:28:58;;;;;;;66.10;52.40;;;;;;;6.50;78.21;98567.55;107987;1267;59692;-65
2023/01/02 08:31:27;;;;;;;51.70;37.60;;;;;;;7.29;76.28;98565.10;108049;1267;71864;-65
2023/01/02 08:33:56;;;;;;;49.50;32.70;;;;;;;7.81;73.78;98561.55;108031;1266;69223;-66
2023/01/02 08:36:25;;;;;;;34.60;27.10;;;;;;;8.25;72.17;98564.98;108023;1260;68767;-64
2023/01/02 08:38:54;;;;;;;37.10;28.20;;;;;;;8.99;70.85;98560.88;108040;1264;59718;-64
2023/01/02 08:41:36;;;;;;;28.40;21.60;;;;;;;9.42;72.58;98554.39;108059;1266;59671;-64
2023/01/02 08:44:06;;;;;;;26.20;21.20;;;;;;;9.21;66.47;98553.34;108045;1263;71386;-64
2023/01/02 08:46:35;;;;;;;23.50;19.20;;;;;;;9.14;65.87;98551.94;108054;1263;69040;-64
2023/01/02 08:49:11;;;;;;;22.70;18.60;;;;;;;9.07;66.30;98548.12;108056;1260;69873;-63
2023/01/02 08:51:39;;;;;;;20.60;17.40;;;;;;;9.28;65.84;98546.77;108019;1266;59700;-64
2023/01/02 08:54:08;;;;;;;19.60;16.80;;;;;;;9.57;65.79;98541.81;108021;1266;59657;-64
2023/01/02 08:56:38;;;;;;;22.00;19.80;;;;;;;9.89;64.77;98539.46;108006;1266;71845;-64
2023/01/02 08:59:10;;;;;;;21.10;19.00;;;;;;;10.39;64.50;98537.67;108045;1266;69671;-64
2023/01/02 09:01:39;;;;;;;14.10;12.60;;;;;;;11.14;62.76;98531.08;107990;1266;69911;-64
2023/01/02 09:04:08;;;;;;;13.60;12.20;;;;;;;11.91;60.33;98527.98;108013;1266;59672;-65
2023/01/02 09:06:42;;;;;;;17.60;15.70;;;;;;;12.27;58.26;98526.67;108016;1263;59691;-65
2023/01/02 09:09:13;;;;;;;13.10;11.90;;;;;;;12.02;58.45;98527.34;108033;1256;70798;-63
2023/01/02 09:11:50;;;;;;;13.70;12.30;;;;;;;11.41;60.21;98524.62;108040;1257;68788;-65
2023/01/02 09:14:21;;;;;;;11.40;10.30;;;;;;;11.60;60.54;98520.39;108011;1260;69905;-65
2023/01/02 09:16:50;;;;;;;10.70;9.70;;;;;;;12.13;59.91;98519.80;107972;1263;59719;-65
2023/01/02 09:19:19;;;;;;;10.20;9.20;;;;;;;12.54;59.37;98517.80;107978;1266;59756;-63
2023/01/02 09:21:47;;;;;;;12.80;11.50;;;;;;;12.96;58.40;98508.84;108004;1266;71908;-64
2023/01/02 09:24:17;;;;;;;31.10;26.30;;;;;;;13.67;57.48;98505.50;108027;1266;69816;-64
2023/01/02 09:26:45;;;;;;;11.70;10.50;;;;;;;14.46;56.24;98508.59;108023;1260;69926;-64
2023/01/02 09:29:15;;;;;;;11.30;10.20;;;;;;;14.75;54.40;98501.98;108064;1266;59763;-64
2023/01/02 09:31:44;;;;;;;10.40;9.40;;;;;;;14.75;53.62;98500.42;108053;1262;59774;-64
2023/01/02 09:34:13;;;;;;;10.70;9.70;;;;;;;14.96;53.54;98491.48;108075;1266;70621;-64
2023/01/02 09:36:42;;;;;;;9.80;8.80;;;;;;;15.92;53.26;98490.20;108024;1266;69844;-64
2023/01/02 09:39:11;;;;;;;11.90;10.80;;;;;;;16.41;50.37;98488.64;108005;1267;69353;-65
2023/01/02 09:41:42;;;;;;;12.10;11.00;;;;;;;16.57;50.39;98485.13;107970;1266;59754;-64
2023/01/02 09:44:38;;;;;;;16.10;14.50;;;;;;;16.07;50.27;98481.14;107993;1260;59716;-64
2023/01/02 09:47:10;;;;;;;12.00;10.90;;;;;;;16.44;50.14;98473.60;108005;1265;71740;-64
2023/01/02 09:49:54;;;;;;;13.00;11.90;;;;;;;16.22;50.52;98469.27;107995;1266;68591;-64
2023/01/02 09:52:52;;;;;;;13.90;12.60;;;;;;;15.98;50.94;98471.45;108037;1262;69144;-64
2023/01/02 09:55:36;;;;;;;12.50;11.40;;;;;;;16.18;50.76;98468.15;108025;1263;59825;-64
2023/01/02 09:58:24;;;;;;;9.90;8.90;;;;;;;16.79;49.47;98464.20;108058;1258;59694;-65
2023/01/02 10:00:53;;;;;;;10.40;9.40;;;;;;;17.28;48.29;98455.67;108015;1265;71405;-64
2023/01/02 10:03:39;;;;;;;9.00;8.10;;;;;;;18.35;48.18;98451.67;107989;1265;69783;-64
2023/01/02 10:06:15;;;;;;;10.30;9.20;;;;;;;19.12;47.46;98448.30;107983;1265;69753;-64
2023/01/02 10:09:10;;;;;;;11.20;10.20;;;;;;;19.46;44.79;98444.59;107980;1260;59780;-64
2023/01/02 10:11:46;;;;;;;10.20;9.20;;;;;;;18.84;45.31;98441.26;107999;1261;59671;-64
2023/01/02 10:14:47;;;;;;;10.90;9.90;;;;;;;18.77;45.12;98435.60;107957;1264;71385;-63
2023/01/02 10:17:16;;;;;;;13.30;12.10;;;;;;;18.79;44.94;98432.55;108004;1265;68780;-64
2023/01/02 10:19:47;;;;;;;11.50;10.40;;;;;;;18.58;45.38;98431.11;107997;1266;69236;-64
2023/01/02 10:22:25;;;;;;;12.40;11.10;;;;;;;18.72;45.30;98426.14;107967;1266;59679;-64
2023/01/02 10:25:21;;;;;;;13.50;12.10;;;;;;;18.60;45.20;98422.59;108027;1257;59693;-63
2023/01/02 10:27:55;;;;;;;16.30;14.70;;;;;;;18.51;45.74;98416.21;107947;1267;71172;-64
2023/01/02 10:30:26;;;;;;;15.00;13.50;;;;;;;19.00;44.24;98411.17;107990;1266;69690;-64
2023/01/02 10:33:03;;;;;;;14.40;13.00;;;;;;;18.93;45.04;98407.41;107987;1266;69919;-64
2023/01/02 10:35:41;;;;;;;16.90;15.20;;;;;;;19.19;44.02;98402.79;107961;1267;59685;-64
2023/01/02 10:38:13;;;;;;;14.10;12.60;;;;;;;18.61;44.44;98394.48;107987;1266;59700;-65
2023/01/02 10:40:45;;;;;;;16.20;14.60;;;;;;;19.01;43.69;98392.02;107973;1263;70894;-64
2023/01/02 10:43:17;;;;;;;17.50;15.70;;;;;;;19.25;43.27;98387.36;107973;1267;68287;-64
2023/01/02 10:45:45;;;;;;;15.70;14.20;;;;;;;19.36;42.93;98384.71;107981;1261;69296;-65
2023/01/02 10:48:14;;;;;;;16.40;14.90;;;;;;;19.42;42.74;98383.64;107920;1267;59745;-64
2023/01/02 10:50:50;;;;;;;14.80;13.40;;;;;;;19.81;42.74;98382.23;107965;1265;59668;-65
2023/01/02 10:53:29;;;;;;;12.90;11.50;;;;;;;19.12;42.98;98378.66;108030;1260;71864;-64
2023/01/02 10:56:19;;;;;;;11.80;10.70;;;;;;;18.29;44.75;98374.88;108006;1262;69727;-64
2023/01/02 10:58:50;;;;;;;12.90;11.70;;;;;;;18.58;44.66;98371.39;107952;1263;68764;-64
2023/01/02 11:01:21;;;;;;;12.30;11.00;;;;;;;18.90;43.95;98364.11;108023;1262;59769;-63
2023/01/02 11:03:53;;;;;;;13.80;11.90;;;;;;;19.45;43.33;98362.50;108057;1266;59690;-62
2023/01/02 11:06:30;;;;;;;12.30;11.10;;;;;;;20.18;41.66;98360.29;107968;1266;70465;-64
2023/01/02 11:09:43;;;;;;;10.60;9.50;;;;;;;20.61;40.92;98351.50;108012;1266;68477;-64
2023/01/02 11:12:13;;;;;;;12.60;11.40;;;;;;;20.18;41.17;98351.62;107967;1266;68574;-64
2023/01/02 11:14:42;;;;;;;12.40;11.30;;;;;;;20.36;40.97;98349.48;107983;1267;59735;-64
2023/01/02 11:17:19;;;;;;;11.20;10.00;;;;;;;20.88;39.96;98343.45;108076;1262;59687;-65
2023/01/02 11:19:50;;;;;;;13.70;12.10;;;;;;;19.99;41.65;98350.35;108004;1265;71625;-65
2023/01/02 11:22:22;;;;;;;11.90;10.70;;;;;;;20.18;40.94;98347.25;108024;1263;68334;-65
2023/01/02 11:24:58;;;;;;;12.00;10.70;;;;;;;20.22;41.13;98343.27;108002;1264;69085;-63
2023/01/02 11:27:34;;;;;;;11.80;9.90;;;;;;;20.63;40.48;98340.66;108010;1263;59717;-64
2023/01/02 11:30:05;;;;;;;10.40;9.30;;;;;;;20.59;40.00;98333.82;108031;1260;59697;-64
2023/01/02 11:32:39;;;;;;;11.20;10.20;;;;;;;20.00;41.27;98339.09;108029;1265;71356;-64
2023/01/02 11:35:32;;;;;;;10.00;8.70;;;;;;;20.19;41.10;98333.89;108038;1262;69158;-65
2023/01/02 11:38:02;;;;;;;11.30;9.80;;;;;;;20.16;41.34;98330.54;108025;1262;69238;-65
2023/01/02 11:40:31;;;;;;;9.40;8.40;;;;;;;20.63;40.46;98327.43;108041;1267;59765;-63
2023/01/02 11:45:54;;;;;;;7.90;6.90;;;;;;;20.48;39.97;98313.81;107982;1264;72003;-64